Friday, October 19, 2018, 6:54 PM EDT
Back to Local

KLWM, Lawrence Municipal Airport

Location: North Andover, MA, United States Lat: 42.717
Local Time: 6:54 PM EDT (22:54 GMT) Lon: -71.133
Time Zone: US/Eastern Elev: 147 ft

Show me the last for .
Show Decoded

2018-10-19 17:54 METAR KLWM 192154Z 20006KT 10SM CLR 15/01 A2997 RMK AO2 SLP150 T01500011 =
2018-10-19 16:54 METAR KLWM 192054Z 21008KT 10SM CLR 16/02 A2998 RMK AO2 SLP151 T01610022 56026 =
2018-10-19 15:54 METAR KLWM 191954Z 25013G19KT 10SM CLR 17/03 A2999 RMK AO2 SLP155 T01720028 =
2018-10-19 14:54 METAR KLWM 191854Z 24014G22KT 10SM CLR 17/03 A3001 RMK AO2 SLP163 T01670028 =
2018-10-19 13:54 METAR KLWM 191754Z 22010G17KT 10SM CLR 16/03 A3005 RMK AO2 SLP177 T01560028
                 10156 20022 58038 =
2018-10-19 12:54 METAR KLWM 191654Z 23010KT 10SM CLR 14/02 A3010 RMK AO2 SLP193 T01440017 =
2018-10-19 11:54 METAR KLWM 191554Z 25011KT 10SM CLR 13/02 A3014 RMK AO2 SLP208 T01280017 =
2018-10-19 10:54 METAR KLWM 191454Z 24008KT 10SM CLR 11/01 A3017 RMK AO2 SLP216 T01060006 58023 =
2018-10-19 09:54 METAR KLWM 191354Z 24011KT 10SM CLR 07/M01 A3021 RMK AO2 SLP229 T00721011 =
2018-10-19 08:54 METAR KLWM 191254Z 22007KT 10SM CLR 04/M02 A3023 RMK AO2 SLP236 T00441017 =
2018-10-19 07:54 METAR KLWM 191154Z 21007KT 10SM CLR 02/M03 A3023 RMK AO2 SLP240 T00221033 10028
                 20011 55004 =
2018-10-19 06:54 METAR KLWM 191054Z 20006KT 10SM CLR 02/M03 A3023 RMK AO2 SLP237 T00171033 =
2018-10-19 05:54 METAR KLWM 190954Z AUTO 18005KT 10SM FEW080 02/M04 A3024 RMK AO2 SLP241
                 T00171039 =
2018-10-19 04:54 METAR KLWM 190854Z AUTO 17004KT 10SM CLR 02/M04 A3025 RMK AO2 SLP243 T00171039
                 56009 =
2018-10-19 03:54 METAR KLWM 190754Z AUTO 00000KT 10SM CLR 02/M04 A3026 RMK AO2 SLP246 T00171039 =
2018-10-19 02:54 METAR KLWM 190654Z AUTO 25003KT 10SM CLR 02/M04 A3026 RMK AO2 SLP248 T00221044 =
2018-10-19 01:54 METAR KLWM 190554Z AUTO 20005KT 10SM CLR 02/M05 A3027 RMK AO2 SLP252 T00221050
                 10050 20017 57002 =
2018-10-19 00:54 METAR KLWM 190454Z AUTO 23007KT 10SM CLR 03/M04 A3028 RMK AO2 SLP253 T00281044
                 400890017 =
2018-10-18 23:54 METAR KLWM 190354Z AUTO 23006KT 10SM CLR 02/M05 A3028 RMK AO2 SLP253 T00221050 =
2018-10-18 22:54 METAR KLWM 190254Z AUTO 20004KT 10SM CLR 03/M06 A3028 RMK AO2 SLP254 T00281056
                 51006 =
2018-10-18 21:54 METAR KLWM 190154Z 21005KT 10SM CLR 03/M05 A3028 RMK AO2 SLP253 T00281050 =
2018-10-18 20:54 METAR KLWM 190054Z 17004KT 10SM CLR 03/M06 A3027 RMK AO2 SLP251 T00281056 =
2018-10-18 19:54 METAR KLWM 182354Z 25005KT 10SM CLR 04/M06 A3026 RMK AO2 SLP248 T00441061 10089
                 20033 51018 =

Support USWX by starting your Amazon purchase here.